createdAt,value
2017-11-22T00:01:19.648Z,3.28
2017-11-22T00:03:54.178Z,4.57
2017-11-22T00:06:28.091Z,4.68
2017-11-22T00:09:07.408Z,5.80
2017-11-22T00:11:41.821Z,2.50
2017-11-22T00:14:16.470Z,5.45
2017-11-22T00:16:51.941Z,7.68
2017-11-22T00:19:25.668Z,6.90
2017-11-22T00:21:59.438Z,6.60
2017-11-22T00:24:33.217Z,7.30
2017-11-22T00:27:07.085Z,7.35
2017-11-22T00:29:43.892Z,11.57
2017-11-22T00:32:18.970Z,5.12
2017-11-22T00:34:52.811Z,8.70
2017-11-22T00:37:27.604Z,7.47
2017-11-22T00:40:03.832Z,9.23
2017-11-22T00:42:39.408Z,10.88
2017-11-22T00:45:13.024Z,10.20
2017-11-22T00:47:46.898Z,7.20
2017-11-22T00:50:20.772Z,10.15
2017-11-22T00:52:55.074Z,13.73
2017-11-22T00:55:28.719Z,8.82
2017-11-22T00:58:02.490Z,9.75
2017-11-22T01:00:37.343Z,16.98
2017-11-22T01:03:11.892Z,9.55
2017-11-22T01:05:46.274Z,10.15
2017-11-22T01:08:20.828Z,9.52
2017-11-22T01:10:54.606Z,10.13
2017-11-22T01:13:29.642Z,8.98
2017-11-22T01:16:05.364Z,7.40
2017-11-22T01:18:39.775Z,9.43
2017-11-22T01:21:14.617Z,9.23
2017-11-22T01:23:48.656Z,10.25
2017-11-22T01:26:23.371Z,11.05
2017-11-22T01:28:57.052Z,9.63
2017-11-22T01:31:31.717Z,7.40
2017-11-22T01:34:06.989Z,7.18
2017-11-22T01:36:40.861Z,8.57
2017-11-22T01:39:14.680Z,10.02
2017-11-22T01:41:48.399Z,14.57
2017-11-22T01:44:23.142Z,10.63
2017-11-22T01:46:56.815Z,7.40
2017-11-22T01:49:31.596Z,5.78
2017-11-22T01:52:05.968Z,5.90
2017-11-22T01:54:39.909Z,6.72
2017-11-22T01:57:15.687Z,9.35
2017-11-22T01:59:49.564Z,9.00
2017-11-22T02:02:24.203Z,8.70
2017-11-22T02:04:58.174Z,10.40
2017-11-22T02:07:32.577Z,10.45
2017-11-22T02:10:06.514Z,7.47
2017-11-22T02:12:41.255Z,6.57
2017-11-22T02:15:17.615Z,5.95
2017-11-22T02:17:52.291Z,7.05
2017-11-22T02:20:26.173Z,6.93
2017-11-22T02:23:02.544Z,7.78
2017-11-22T02:25:37.163Z,8.52
2017-11-22T02:28:10.953Z,5.57
2017-11-22T02:30:44.805Z,6.90
2017-11-22T02:33:18.570Z,5.93
2017-11-22T02:35:52.991Z,6.37
2017-11-22T02:38:26.897Z,7.53
2017-11-22T02:41:00.757Z,7.70
2017-11-22T02:43:34.484Z,9.05
2017-11-22T02:46:09.736Z,4.82
2017-11-22T02:48:45.118Z,9.02
2017-11-22T02:51:19.519Z,6.20
2017-11-22T02:53:54.472Z,6.93
2017-11-22T02:56:28.411Z,6.15
2017-11-22T02:59:03.781Z,3.72
2017-11-22T03:01:37.541Z,2.97
2017-11-22T03:04:11.441Z,2.47
2017-11-22T03:06:45.964Z,2.80
2017-11-22T03:09:21.667Z,3.72
2017-11-22T03:11:56.350Z,4.47
2017-11-22T03:14:30.094Z,2.47
2017-11-22T03:17:04.541Z,3.40
2017-11-22T03:19:38.299Z,9.02
2017-11-22T03:22:12.069Z,4.45
2017-11-22T03:29:22.207Z,3.15
2017-11-22T03:32:00.056Z,7.95
2017-11-22T03:34:35.687Z,4.78
2017-11-22T03:37:12.986Z,3.40
2017-11-22T03:39:48.982Z,2.87
2017-11-22T03:42:23.349Z,6.90
2017-11-22T03:44:57.985Z,3.12
2017-11-22T03:47:32.519Z,3.10
2017-11-22T03:50:13.486Z,3.80
2017-11-22T03:52:53.943Z,4.40
2017-11-22T03:55:29.406Z,6.43
2017-11-22T03:58:05.688Z,5.80
2017-11-22T04:00:41.089Z,5.50
2017-11-22T04:03:16.779Z,2.58
2017-11-22T04:05:57.234Z,2.50
2017-11-22T04:08:34.218Z,4.07
2017-11-22T04:11:09.120Z,7.72
2017-11-22T04:13:42.973Z,6.30
2017-11-22T04:16:17.644Z,6.70
2017-11-22T04:18:52.546Z,7.93
2017-11-22T04:21:26.263Z,6.20
2017-11-22T04:24:01.843Z,5.50
2017-11-22T04:26:36.151Z,6.55
2017-11-22T04:29:09.893Z,7.55
2017-11-22T04:31:44.611Z,7.47
2017-11-22T04:34:18.901Z,5.03
2017-11-22T04:36:52.718Z,8.75
2017-11-22T04:39:26.459Z,8.40
2017-11-22T04:42:02.223Z,9.80
2017-11-22T04:44:35.898Z,13.95
2017-11-22T04:47:09.733Z,11.35
2017-11-22T04:49:43.626Z,10.65
2017-11-22T04:52:17.450Z,12.63
2017-11-22T04:54:51.249Z,10.52
2017-11-22T04:57:25.824Z,7.32
2017-11-22T05:00:00.546Z,8.88
2017-11-22T05:02:35.170Z,8.52
2017-11-22T05:05:09.864Z,5.82
2017-11-22T05:07:43.659Z,12.37
2017-11-22T05:10:18.018Z,10.85
2017-11-22T05:12:51.725Z,14.07
2017-11-22T05:15:28.373Z,6.78
2017-11-22T05:18:02.045Z,8.95
2017-11-22T05:20:36.443Z,12.07
2017-11-22T05:23:11.088Z,10.20
2017-11-22T05:25:44.797Z,8.00
2017-11-22T05:28:19.386Z,10.80
2017-11-22T05:30:54.415Z,11.73
2017-11-22T05:33:29.160Z,6.10
2017-11-22T05:36:03.901Z,9.73
2017-11-22T05:38:38.550Z,8.48
2017-11-22T05:41:12.216Z,8.85
2017-11-22T05:43:46.065Z,6.00
2017-11-22T05:46:20.357Z,10.00
2017-11-22T05:48:55.890Z,13.57
2017-11-22T05:51:29.892Z,10.65
2017-11-22T05:54:04.321Z,11.40
2017-11-22T05:56:39.623Z,13.50
2017-11-22T05:59:14.092Z,18.12
2017-11-22T06:01:48.760Z,15.80
2017-11-22T06:04:23.275Z,19.15
2017-11-22T06:06:57.835Z,15.38
2017-11-22T06:09:32.304Z,13.77
2017-11-22T06:12:06.715Z,14.00
2017-11-22T06:14:42.191Z,11.12
2017-11-22T06:17:16.651Z,9.48
2017-11-22T06:19:51.457Z,9.85
2017-11-22T06:22:25.324Z,10.82
2017-11-22T06:24:59.013Z,7.12
2017-11-22T06:27:33.639Z,10.80
2017-11-22T06:30:13.796Z,17.87
2017-11-22T06:32:47.497Z,14.80
2017-11-22T06:35:21.252Z,16.45
2017-11-22T06:37:56.587Z,10.40
2017-11-22T06:40:30.566Z,10.73
2017-11-22T06:43:04.405Z,12.95
2017-11-22T06:45:39.023Z,12.93
2017-11-22T06:48:13.535Z,15.07
2017-11-22T06:50:47.667Z,10.40
2017-11-22T06:53:25.595Z,10.82
2017-11-22T06:55:59.529Z,18.40
2017-11-22T06:58:33.295Z,16.55
2017-11-22T07:01:07.176Z,20.52
2017-11-22T07:03:47.548Z,23.15
2017-11-22T07:06:21.251Z,14.27
2017-11-22T07:08:55.994Z,15.70
2017-11-22T07:11:30.680Z,14.75
2017-11-22T07:14:05.116Z,15.10
2017-11-22T07:16:44.743Z,15.65
2017-11-22T07:19:20.006Z,17.60
2017-11-22T07:21:56.168Z,21.23
2017-11-22T07:24:30.569Z,20.52
2017-11-22T07:27:05.290Z,13.80
2017-11-22T07:29:40.930Z,16.50
2017-11-22T07:32:14.901Z,13.88
2017-11-22T07:34:50.306Z,19.50
2017-11-22T07:37:30.661Z,19.55
2017-11-22T07:40:04.474Z,27.90
2017-11-22T07:42:39.028Z,26.15
2017-11-22T07:45:12.870Z,27.83
2017-11-22T07:47:52.119Z,27.13
2017-11-22T07:50:25.926Z,21.65
2017-11-22T07:52:59.691Z,20.15
2017-11-22T07:55:34.276Z,25.70
2017-11-22T07:58:08.777Z,25.62
2017-11-22T08:00:42.607Z,37.72
2017-11-22T08:03:22.129Z,42.58
2017-11-22T08:05:56.973Z,42.08
2017-11-22T08:08:31.748Z,39.80
2017-11-22T08:11:05.971Z,33.65
2017-11-22T08:13:39.785Z,54.75
2017-11-22T08:16:14.292Z,51.45
2017-11-22T08:18:48.135Z,60.50
2017-11-22T08:21:22.711Z,47.25
2017-11-22T08:23:56.403Z,43.47
2017-11-22T08:26:30.239Z,83.50
2017-11-22T08:29:05.011Z,46.45
2017-11-22T08:31:38.919Z,80.38
2017-11-22T08:34:12.628Z,54.70
2017-11-22T08:36:46.460Z,57.28
2017-11-22T08:39:20.296Z,60.58
2017-11-22T08:41:54.155Z,55.83
2017-11-22T08:44:27.811Z,49.92
2017-11-22T08:47:02.291Z,59.28
2017-11-22T08:49:36.980Z,40.35
2017-11-22T08:52:10.838Z,35.28
2017-11-22T08:54:51.327Z,30.62
2017-11-22T08:57:31.515Z,38.95
2017-11-22T09:00:11.926Z,32.15
2017-11-22T09:02:50.438Z,19.37
2017-11-22T09:05:24.137Z,18.92
2017-11-22T09:07:57.959Z,22.98
2017-11-22T09:10:31.764Z,18.23
2017-11-22T09:13:06.602Z,18.73
2017-11-22T09:15:42.488Z,17.12
2017-11-22T09:18:21.957Z,17.77
2017-11-22T09:20:58.674Z,19.20
2017-11-22T09:23:32.358Z,31.80
2017-11-22T09:26:06.109Z,20.20
2017-11-22T09:28:39.984Z,21.45
2017-11-22T09:31:19.446Z,17.25
2017-11-22T09:33:58.972Z,16.12
2017-11-22T09:36:32.890Z,23.00
2017-11-22T09:39:06.658Z,28.95
2017-11-22T09:41:41.096Z,37.25
2017-11-22T09:44:14.865Z,18.12
2017-11-22T09:46:48.562Z,15.85
2017-11-22T09:49:22.311Z,17.35
2017-11-22T09:51:56.832Z,14.10
2017-11-22T09:54:30.699Z,15.45
2017-11-22T09:57:04.429Z,10.38
2017-11-22T09:59:38.058Z,9.45
2017-11-22T10:02:12.576Z,10.52
2017-11-22T10:04:47.270Z,7.00
2017-11-22T10:07:20.960Z,6.47
2017-11-22T10:09:55.613Z,5.80
2017-11-22T10:12:30.164Z,6.80
2017-11-22T10:15:03.937Z,3.80
2017-11-22T10:17:41.071Z,5.07
2017-11-22T10:20:19.666Z,10.40
2017-11-22T10:22:53.315Z,3.65
2017-11-22T10:25:27.232Z,8.00
2017-11-22T10:28:05.277Z,3.55
2017-11-22T10:30:42.856Z,4.68
2017-11-22T10:33:16.456Z,3.35
2017-11-22T10:35:50.240Z,2.25
2017-11-22T10:38:23.977Z,4.22
2017-11-22T10:40:57.773Z,3.30
2017-11-22T10:43:31.642Z,2.28
2017-11-22T10:46:06.197Z,4.57
2017-11-22T10:48:39.896Z,3.72
2017-11-22T10:51:14.154Z,3.87
2017-11-22T10:53:47.931Z,2.67
2017-11-22T10:56:22.400Z,1.75
2017-11-22T10:58:57.228Z,2.50
2017-11-22T11:01:31.064Z,5.82
2017-11-22T11:04:04.793Z,2.70
2017-11-22T11:06:40.584Z,3.00
2017-11-22T11:09:15.633Z,3.37
2017-11-22T11:11:50.148Z,2.58
2017-11-22T11:14:25.569Z,3.65
2017-11-22T11:17:00.413Z,3.58
2017-11-22T11:19:34.880Z,2.05
2017-11-22T11:22:08.742Z,4.68
2017-11-22T11:24:42.609Z,3.65
2017-11-22T11:27:16.401Z,4.18
2017-11-22T11:29:50.197Z,6.87
2017-11-22T11:32:23.912Z,2.10
2017-11-22T11:34:57.643Z,3.00
2017-11-22T11:37:31.756Z,2.45
2017-11-22T11:40:07.962Z,1.65
2017-11-22T11:42:42.542Z,3.67
2017-11-22T11:45:16.429Z,3.80
2017-11-22T11:47:51.243Z,3.33
2017-11-22T11:50:25.006Z,4.55
2017-11-22T11:52:58.724Z,2.30
2017-11-22T11:55:33.009Z,4.53
2017-11-22T11:58:08.721Z,3.05
2017-11-22T12:00:42.463Z,3.45
2017-11-22T12:03:16.789Z,2.25
2017-11-22T12:05:52.271Z,2.42
2017-11-22T12:08:26.219Z,5.37
2017-11-22T12:11:00.700Z,2.37
2017-11-22T12:13:34.505Z,2.10
2017-11-22T12:16:08.834Z,3.12
2017-11-22T12:18:42.743Z,3.60
2017-11-22T12:21:17.365Z,2.35
2017-11-22T12:23:51.989Z,2.03
2017-11-22T12:26:27.924Z,2.67
2017-11-22T12:29:01.792Z,3.08
2017-11-22T12:31:36.292Z,3.25
2017-11-22T12:34:10.015Z,4.45
2017-11-22T12:36:44.228Z,2.90
2017-11-22T12:39:18.113Z,2.65
2017-11-22T12:41:51.881Z,1.67
2017-11-22T12:44:25.640Z,4.55
2017-11-22T12:47:00.146Z,2.70
2017-11-22T12:49:34.711Z,2.33
2017-11-22T12:52:08.566Z,2.62
2017-11-22T12:54:43.230Z,1.60
2017-11-22T12:57:17.817Z,3.08
2017-11-22T12:59:51.487Z,1.45
2017-11-22T13:02:26.023Z,3.17
2017-11-22T13:05:00.423Z,4.00
2017-11-22T13:07:34.297Z,6.45
2017-11-22T13:13:13.048Z,1.95
2017-11-22T13:15:47.976Z,3.37
2017-11-22T13:18:21.838Z,2.25
2017-11-22T13:20:56.471Z,2.70
2017-11-22T13:23:30.427Z,4.18
2017-11-22T13:26:04.330Z,3.85
2017-11-22T13:28:37.981Z,4.25
2017-11-22T13:31:12.965Z,5.78
2017-11-22T13:33:46.729Z,2.37
2017-11-22T13:36:20.593Z,2.40
2017-11-22T13:38:56.066Z,3.60
2017-11-22T13:41:29.883Z,5.20
2017-11-22T13:44:03.743Z,7.20
2017-11-22T13:46:38.480Z,49.78
2017-11-22T13:49:13.150Z,24.37
2017-11-22T13:51:47.004Z,11.12
2017-11-22T13:54:20.787Z,18.10
2017-11-22T13:56:55.259Z,11.98
2017-11-22T14:04:02.748Z,7.68
2017-11-22T14:06:36.535Z,3.78
2017-11-22T14:09:10.394Z,4.57
2017-11-22T14:11:44.274Z,12.68
2017-11-22T14:14:17.982Z,4.25
2017-11-22T14:16:52.565Z,28.27
2017-11-22T14:19:26.330Z,57.15
2017-11-22T14:22:00.074Z,32.95
2017-11-22T14:24:34.645Z,41.60
2017-11-22T14:27:08.608Z,23.42
2017-11-22T14:29:43.162Z,34.45
2017-11-22T14:32:17.599Z,27.00
2017-11-22T14:34:51.285Z,26.02
2017-11-22T14:37:25.876Z,7.30
2017-11-22T14:39:59.682Z,10.52
2017-11-22T14:42:33.475Z,7.35
2017-11-22T14:45:09.058Z,26.05
2017-11-22T14:47:43.046Z,38.97
2017-11-22T14:50:17.101Z,20.50
2017-11-22T14:52:50.860Z,12.40
2017-11-22T14:55:26.015Z,15.10
2017-11-22T14:58:00.721Z,17.95
2017-11-22T15:00:34.549Z,4.68
2017-11-22T15:03:08.154Z,7.53
2017-11-22T15:05:42.693Z,21.35
2017-11-22T15:08:16.456Z,14.65
2017-11-22T15:10:50.277Z,11.18
2017-11-22T15:13:23.883Z,4.90
2017-11-22T15:15:58.410Z,7.18
2017-11-22T15:18:32.341Z,7.37
2017-11-22T15:21:06.090Z,6.70
2017-11-22T15:23:40.669Z,8.57
2017-11-22T15:26:14.528Z,8.80
2017-11-22T15:28:49.076Z,11.15
2017-11-22T15:31:23.806Z,11.65
2017-11-22T15:33:57.384Z,8.48
2017-11-22T15:36:31.170Z,8.73
2017-11-22T15:39:05.268Z,10.95
2017-11-22T15:41:39.026Z,20.83
2017-11-22T15:44:13.336Z,22.27
2017-11-22T15:46:47.111Z,26.10
2017-11-22T15:49:20.996Z,62.60
2017-11-22T15:51:54.734Z,61.53
2017-11-22T15:54:28.698Z,25.40
2017-11-22T15:57:03.576Z,25.20
2017-11-22T15:59:38.191Z,23.73
2017-11-22T16:02:11.901Z,19.98
2017-11-22T16:04:45.756Z,18.10
2017-11-22T16:07:19.692Z,20.90
2017-11-22T16:09:53.455Z,26.30
2017-11-22T16:12:27.953Z,31.58
2017-11-22T16:15:02.421Z,46.85
2017-11-22T16:17:36.174Z,50.58
2017-11-22T16:20:09.929Z,95.32
2017-11-22T16:22:44.527Z,63.63
2017-11-22T16:25:18.243Z,102.90
2017-11-22T16:27:51.844Z,80.07
2017-11-22T16:30:26.708Z,51.08
2017-11-22T16:33:00.633Z,46.58
2017-11-22T16:35:34.436Z,52.42
2017-11-22T16:38:10.194Z,54.35
2017-11-22T16:40:44.364Z,48.87
2017-11-22T16:43:18.169Z,49.65
2017-11-22T16:45:51.980Z,50.47
2017-11-22T16:48:27.168Z,42.72
2017-11-22T16:51:01.004Z,37.92
2017-11-22T16:53:35.361Z,39.20
2017-11-22T16:56:09.311Z,36.42
2017-11-22T16:58:43.787Z,36.35
2017-11-22T17:01:17.538Z,37.50
2017-11-22T17:03:52.089Z,27.95
2017-11-22T17:06:26.046Z,31.05
2017-11-22T17:09:00.010Z,30.42
2017-11-22T17:11:33.837Z,22.17
2017-11-22T17:14:07.640Z,24.30
2017-11-22T17:16:41.500Z,28.95
2017-11-22T17:19:16.536Z,22.85
2017-11-22T17:21:51.722Z,18.45
2017-11-22T17:24:25.559Z,21.60
2017-11-22T17:27:00.136Z,24.75
2017-11-22T17:29:33.987Z,25.20
2017-11-22T17:32:07.815Z,19.83
2017-11-22T17:34:42.192Z,25.35
2017-11-22T17:37:15.817Z,20.35
2017-11-22T17:39:50.753Z,24.02
2017-11-22T17:42:24.471Z,29.08
2017-11-22T17:44:58.395Z,30.42
2017-11-22T17:47:32.279Z,16.23
2017-11-22T17:50:06.114Z,27.20
2017-11-22T17:52:40.905Z,24.30
2017-11-22T17:55:14.534Z,36.92
2017-11-22T17:57:48.389Z,29.05
2017-11-22T18:00:22.322Z,16.50
2017-11-22T18:02:57.975Z,25.17
2017-11-22T18:05:31.801Z,40.75
2017-11-22T18:08:06.326Z,33.88
2017-11-22T18:10:41.385Z,31.75
2017-11-22T18:13:16.132Z,48.28
2017-11-22T18:15:49.870Z,36.63
2017-11-22T18:18:24.335Z,38.58
2017-11-22T18:20:58.771Z,42.50
2017-11-22T18:23:33.604Z,49.40
2017-11-22T18:26:08.220Z,39.60
2017-11-22T18:28:42.602Z,30.60
2017-11-22T18:31:16.385Z,37.72
2017-11-22T18:33:51.429Z,32.75
2017-11-22T18:36:26.214Z,35.25
2017-11-22T18:39:00.538Z,47.50
2017-11-22T18:41:35.125Z,44.53
2017-11-22T18:44:09.068Z,50.33
2017-11-22T18:46:43.662Z,49.63
2017-11-22T18:49:18.342Z,60.80
2017-11-22T18:51:52.083Z,57.08
2017-11-22T18:54:25.748Z,57.90
2017-11-22T18:56:59.640Z,56.55
2017-11-22T18:59:33.430Z,73.37
2017-11-22T19:02:07.223Z,43.67
2017-11-22T19:04:41.402Z,36.13
2017-11-22T19:07:15.202Z,50.72
2017-11-22T19:09:50.103Z,41.15
2017-11-22T19:12:24.745Z,45.63
2017-11-22T19:14:59.182Z,36.25
2017-11-22T19:17:33.101Z,31.62
2017-11-22T19:20:07.868Z,30.20
2017-11-22T19:22:41.765Z,40.03
2017-11-22T19:25:17.196Z,32.40
2017-11-22T19:27:52.083Z,35.67
2017-11-22T19:30:25.874Z,32.13
2017-11-22T19:32:59.716Z,44.72
2017-11-22T19:35:34.222Z,48.80
2017-11-22T19:38:08.020Z,45.85
2017-11-22T19:40:41.800Z,41.10
2017-11-22T19:43:17.077Z,47.72
2017-11-22T19:45:51.956Z,45.58
2017-11-22T19:48:25.748Z,50.67
2017-11-22T19:50:59.731Z,66.15
2017-11-22T19:53:34.178Z,80.35
2017-11-22T19:56:08.043Z,70.53
2017-11-22T19:58:42.534Z,82.90
2017-11-22T20:01:16.980Z,69.57
2017-11-22T20:03:50.779Z,57.72
2017-11-22T20:06:25.365Z,68.28
2017-11-22T20:09:03.033Z,57.65
2017-11-22T20:11:36.755Z,67.70
2017-11-22T20:14:10.525Z,56.53
2017-11-22T20:16:44.960Z,60.08
2017-11-22T20:19:18.743Z,48.95
2017-11-22T20:21:52.704Z,52.47
2017-11-22T20:24:27.282Z,50.28
2017-11-22T20:27:02.878Z,44.65
2017-11-22T20:29:38.443Z,56.33
2017-11-22T20:32:13.442Z,51.05
2017-11-22T20:34:48.845Z,58.85
2017-11-22T20:37:22.707Z,54.17
2017-11-22T20:39:56.405Z,46.13
2017-11-22T20:42:30.098Z,51.25
2017-11-22T20:45:03.851Z,54.08
2017-11-22T20:47:38.281Z,39.80
2017-11-22T20:50:12.025Z,38.25
2017-11-22T20:52:45.869Z,35.70
2017-11-22T20:55:19.661Z,61.75
2017-11-22T20:57:54.294Z,45.75
2017-11-22T21:00:28.881Z,53.42
2017-11-22T21:03:02.776Z,40.88
2017-11-22T21:05:36.646Z,39.85
2017-11-22T21:08:10.407Z,34.80
2017-11-22T21:10:46.008Z,41.22
2017-11-22T21:13:19.885Z,42.97
2017-11-22T21:15:53.751Z,37.65
2017-11-22T21:18:27.875Z,38.22
2017-11-22T21:21:01.603Z,58.50
2017-11-22T21:23:38.484Z,44.05
2017-11-22T21:26:14.569Z,46.92
2017-11-22T21:28:48.376Z,42.53
2017-11-22T21:31:21.999Z,41.40
2017-11-22T21:33:56.220Z,43.53
2017-11-22T21:36:30.099Z,51.03
2017-11-22T21:39:05.534Z,48.15
2017-11-22T21:41:39.446Z,35.22
2017-11-22T21:44:13.402Z,35.70
2017-11-22T21:46:47.305Z,41.47
2017-11-22T21:49:22.841Z,45.35
2017-11-22T21:51:56.752Z,35.38
2017-11-22T21:54:30.656Z,42.67
2017-11-22T21:57:05.298Z,45.00
2017-11-22T21:59:39.757Z,57.47
2017-11-22T22:02:14.373Z,52.03
2017-11-22T22:04:48.164Z,58.28
2017-11-22T22:07:22.814Z,60.80
2017-11-22T22:09:56.686Z,59.63
2017-11-22T22:12:31.470Z,42.03
2017-11-22T22:15:05.423Z,31.98
2017-11-22T22:17:39.930Z,33.13
2017-11-22T22:20:13.811Z,34.10
2017-11-22T22:22:47.635Z,34.00
2017-11-22T22:25:21.644Z,30.02
2017-11-22T22:27:55.352Z,32.28
2017-11-22T22:30:29.313Z,32.95
2017-11-22T22:33:04.917Z,39.17
2017-11-22T22:35:40.332Z,36.10
2017-11-22T22:38:14.765Z,36.97
2017-11-22T22:40:48.669Z,35.40
2017-11-22T22:43:23.213Z,25.85
2017-11-22T22:45:57.137Z,26.50
2017-11-22T22:48:32.321Z,35.30
2017-11-22T22:51:06.157Z,27.02
2017-11-22T22:53:40.049Z,29.67
2017-11-22T22:59:12.090Z,28.92
2017-11-22T23:01:46.609Z,26.70
2017-11-22T23:04:20.494Z,27.62
2017-11-22T23:06:54.978Z,32.80
2017-11-22T23:09:29.567Z,32.92
2017-11-22T23:12:04.157Z,33.03
2017-11-22T23:14:38.890Z,28.73
2017-11-22T23:17:12.594Z,23.60
2017-11-22T23:19:46.477Z,22.75
2017-11-22T23:22:21.837Z,31.37
2017-11-22T23:24:56.252Z,29.63
2017-11-22T23:27:29.968Z,28.20
2017-11-22T23:30:04.162Z,24.90
2017-11-22T23:32:42.566Z,23.42
2017-11-22T23:35:18.430Z,33.83
2017-11-22T23:37:53.736Z,34.85
2017-11-22T23:40:27.672Z,26.27
2017-11-22T23:43:02.359Z,36.55
2017-11-22T23:45:36.030Z,23.38
2017-11-22T23:48:10.450Z,31.33
2017-11-22T23:50:44.956Z,31.42
2017-11-22T23:53:19.613Z,19.35
2017-11-22T23:55:53.433Z,22.75
2017-11-22T23:58:27.786Z,18.62
